createdAt,value
2023-02-18T00:01:29.635Z,16.30
2023-02-18T00:03:58.338Z,11.40
2023-02-18T00:06:34.106Z,10.20
2023-02-18T00:09:01.589Z,9.10
2023-02-18T00:11:30.904Z,20.10
2023-02-18T00:14:00.808Z,11.10
2023-02-18T00:16:29.219Z,9.80
2023-02-18T00:18:58.594Z,12.30
2023-02-18T00:21:25.815Z,9.80
2023-02-18T00:23:52.645Z,9.90
2023-02-18T00:26:19.809Z,8.90
2023-02-18T00:28:51.178Z,10.80
2023-02-18T00:31:22.101Z,12.00
2023-02-18T00:33:49.133Z,18.70
2023-02-18T00:36:18.562Z,16.50
2023-02-18T00:38:47.702Z,7.70
2023-02-18T00:41:15.139Z,11.00
2023-02-18T00:43:42.463Z,9.80
2023-02-18T00:46:10.482Z,9.40
2023-02-18T00:48:37.309Z,10.40
2023-02-18T00:51:05.274Z,15.90
2023-02-18T00:53:32.513Z,13.00
2023-02-18T00:55:59.077Z,13.10
2023-02-18T00:58:25.752Z,12.80
2023-02-18T01:00:53.469Z,8.40
2023-02-18T01:03:21.739Z,16.50
2023-02-18T01:05:50.156Z,10.60
2023-02-18T01:08:18.192Z,6.80
2023-02-18T01:10:47.856Z,10.00
2023-02-18T01:13:15.890Z,11.40
2023-02-18T01:15:43.160Z,10.50
2023-02-18T01:18:10.688Z,14.10
2023-02-18T01:20:40.852Z,11.90
2023-02-18T01:23:07.576Z,12.70
2023-02-18T01:25:34.909Z,11.10
2023-02-18T01:28:01.800Z,14.30
2023-02-18T01:30:28.425Z,10.40
2023-02-18T01:32:56.775Z,18.20
2023-02-18T01:35:23.826Z,13.60
2023-02-18T01:37:50.609Z,18.60
2023-02-18T01:40:24.587Z,13.70
2023-02-18T01:42:51.164Z,10.20
2023-02-18T01:45:38.348Z,11.00
2023-02-18T01:48:08.016Z,14.00
2023-02-18T01:50:38.137Z,17.30
2023-02-18T01:53:04.712Z,17.40
2023-02-18T01:55:33.165Z,13.10
2023-02-18T01:57:59.966Z,11.00
2023-02-18T02:00:26.577Z,14.80
2023-02-18T02:02:53.508Z,13.70
2023-02-18T02:05:21.367Z,13.90
2023-02-18T02:07:51.675Z,11.60
2023-02-18T02:10:18.629Z,16.50
2023-02-18T02:12:54.913Z,10.60
2023-02-18T02:15:30.181Z,15.30
2023-02-18T02:18:33.896Z,12.40
2023-02-18T02:21:46.845Z,19.60
2023-02-18T02:24:40.957Z,11.90
2023-02-18T02:27:28.756Z,13.60
2023-02-18T02:30:26.575Z,11.70
2023-02-18T02:33:30.901Z,14.00
2023-02-18T02:36:14.299Z,16.20
2023-02-18T02:39:00.325Z,10.80
2023-02-18T02:42:08.189Z,10.80
2023-02-18T02:44:55.806Z,12.20
2023-02-18T02:47:38.061Z,20.60
2023-02-18T02:50:20.909Z,12.80
2023-02-18T02:52:51.958Z,7.70
2023-02-18T02:55:18.700Z,12.30
2023-02-18T02:57:50.353Z,10.80
2023-02-18T03:00:23.011Z,10.50
2023-02-18T03:03:11.953Z,9.20
2023-02-18T03:06:25.213Z,11.00
2023-02-18T03:09:30.048Z,13.90
2023-02-18T03:12:05.340Z,11.90
2023-02-18T03:15:07.050Z,11.00
2023-02-18T03:17:45.912Z,10.50
2023-02-18T03:20:25.464Z,12.60
2023-02-18T03:22:53.276Z,15.40
2023-02-18T03:25:21.209Z,12.70
2023-02-18T03:27:59.542Z,10.90
2023-02-18T03:30:32.757Z,12.80
2023-02-18T03:33:04.001Z,11.80
2023-02-18T03:35:31.169Z,12.30
2023-02-18T03:38:17.333Z,13.40
2023-02-18T03:40:43.937Z,15.60
2023-02-18T03:43:10.504Z,10.20
2023-02-18T03:45:37.038Z,14.30
2023-02-18T03:48:04.236Z,15.30
2023-02-18T03:50:30.709Z,15.90
2023-02-18T03:52:57.187Z,14.00
2023-02-18T03:55:23.732Z,12.10
2023-02-18T03:57:50.320Z,9.90
2023-02-18T04:00:17.492Z,13.50
2023-02-18T04:02:44.068Z,12.30
2023-02-18T04:05:12.499Z,16.20
2023-02-18T04:07:38.998Z,12.50
2023-02-18T04:10:07.756Z,19.10
2023-02-18T04:12:34.292Z,17.90
2023-02-18T04:15:00.837Z,16.10
2023-02-18T04:17:27.328Z,13.80
2023-02-18T04:19:53.868Z,12.00
2023-02-18T04:22:20.555Z,14.60
2023-02-18T04:24:47.147Z,16.70
2023-02-18T04:27:13.683Z,16.50
2023-02-18T04:29:40.410Z,10.20
2023-02-18T04:32:07.029Z,19.90
2023-02-18T04:34:33.594Z,13.10
2023-02-18T04:37:00.132Z,14.50
2023-02-18T04:39:26.661Z,14.20
2023-02-18T04:41:53.295Z,17.20
2023-02-18T04:44:19.910Z,10.60
2023-02-18T04:46:47.380Z,12.00
2023-02-18T04:49:13.904Z,14.60
2023-02-18T04:51:40.390Z,13.90
2023-02-18T04:54:06.945Z,17.80
2023-02-18T04:56:33.423Z,12.90
2023-02-18T04:58:59.995Z,15.70
2023-02-18T05:01:26.588Z,17.20
2023-02-18T05:03:53.323Z,12.70
2023-02-18T05:06:19.850Z,10.70
2023-02-18T05:08:46.352Z,12.60
2023-02-18T05:11:12.846Z,12.20
2023-02-18T05:13:39.405Z,11.30
2023-02-18T05:16:06.418Z,9.50
2023-02-18T05:18:33.319Z,13.10
2023-02-18T05:20:59.976Z,20.50
2023-02-18T05:23:26.815Z,10.70
2023-02-18T05:25:54.716Z,13.00
2023-02-18T05:28:22.015Z,10.00
2023-02-18T05:30:48.642Z,14.60
2023-02-18T05:33:15.200Z,12.30
2023-02-18T05:35:41.745Z,13.00
2023-02-18T05:38:09.300Z,17.50
2023-02-18T05:40:35.773Z,15.00
2023-02-18T05:43:02.338Z,12.00
2023-02-18T05:45:28.917Z,9.20
2023-02-18T05:47:55.434Z,14.70
2023-02-18T05:50:21.949Z,12.10
2023-02-18T05:52:48.466Z,17.00
2023-02-18T05:55:14.990Z,18.80
2023-02-18T05:57:41.547Z,11.00
2023-02-18T06:00:09.572Z,13.20
2023-02-18T06:02:36.911Z,8.90
2023-02-18T06:05:04.784Z,17.50
2023-02-18T06:07:31.328Z,12.90
2023-02-18T06:09:57.864Z,13.50
2023-02-18T06:12:24.620Z,14.80
2023-02-18T06:14:51.322Z,15.60
2023-02-18T06:17:18.185Z,21.50
2023-02-18T06:19:45.418Z,21.00
2023-02-18T06:22:12.806Z,16.30
2023-02-18T06:24:39.587Z,13.00
2023-02-18T06:27:06.803Z,15.30
2023-02-18T06:29:35.260Z,10.30
2023-02-18T06:32:02.026Z,13.30
2023-02-18T06:34:28.682Z,15.90
2023-02-18T06:36:55.551Z,18.40
2023-02-18T06:39:22.253Z,13.90
2023-02-18T06:41:48.724Z,14.50
2023-02-18T06:44:16.710Z,11.80
2023-02-18T06:46:44.156Z,14.30
2023-02-18T06:49:10.702Z,24.00
2023-02-18T06:51:37.268Z,17.20
2023-02-18T06:54:05.268Z,12.20
2023-02-18T06:56:32.133Z,12.40
2023-02-18T06:58:58.726Z,16.10
2023-02-18T07:01:25.318Z,14.80
2023-02-18T07:03:52.050Z,13.90
2023-02-18T07:06:18.630Z,13.20
2023-02-18T07:08:45.411Z,17.10
2023-02-18T07:11:12.006Z,9.90
2023-02-18T07:13:38.499Z,16.50
2023-02-18T07:16:05.551Z,11.30
2023-02-18T07:18:32.264Z,9.20
2023-02-18T07:20:58.806Z,13.80
2023-02-18T07:23:25.345Z,14.80
2023-02-18T07:25:52.021Z,17.50
2023-02-18T07:28:18.648Z,14.80
2023-02-18T07:30:45.177Z,16.50
2023-02-18T07:33:13.515Z,12.90
2023-02-18T07:35:40.125Z,10.10
2023-02-18T07:38:06.717Z,17.90
2023-02-18T07:40:33.348Z,16.80
2023-02-18T07:43:00.120Z,15.20
2023-02-18T07:45:26.782Z,12.00
2023-02-18T07:47:53.354Z,10.50
2023-02-18T07:50:20.081Z,15.10
2023-02-18T07:52:46.616Z,10.80
2023-02-18T07:55:13.229Z,15.00
2023-02-18T07:57:56.645Z,10.40
2023-02-18T08:00:24.277Z,11.30
2023-02-18T08:02:51.001Z,13.70
2023-02-18T08:05:17.807Z,14.20
2023-02-18T08:07:44.497Z,9.70
2023-02-18T08:10:11.176Z,12.70
2023-02-18T08:12:38.038Z,11.70
2023-02-18T08:15:05.275Z,13.10
2023-02-18T08:17:32.125Z,14.10
2023-02-18T08:19:58.918Z,12.90
2023-02-18T08:22:26.607Z,12.20
2023-02-18T08:24:56.493Z,11.40
2023-02-18T08:27:24.068Z,17.20
2023-02-18T08:29:51.467Z,12.00
2023-02-18T08:32:18.331Z,10.70
2023-02-18T08:34:48.081Z,11.50
2023-02-18T08:37:14.888Z,13.20
2023-02-18T08:39:41.591Z,14.50
2023-02-18T08:42:08.181Z,10.10
2023-02-18T08:44:34.701Z,13.90
2023-02-18T08:47:01.340Z,10.70
2023-02-18T08:49:28.033Z,11.90
2023-02-18T08:51:55.518Z,17.00
2023-02-18T08:54:22.417Z,16.20
2023-02-18T08:56:48.935Z,14.00
2023-02-18T08:59:15.436Z,11.40
2023-02-18T09:01:42.069Z,12.50
2023-02-18T09:04:08.735Z,10.50
2023-02-18T09:06:38.195Z,7.90
2023-02-18T09:09:05.236Z,7.40
2023-02-18T09:11:32.077Z,8.30
2023-02-18T09:13:58.744Z,8.70
2023-02-18T09:16:27.542Z,14.00
2023-02-18T09:18:54.043Z,8.50
2023-02-18T09:21:21.960Z,11.10
2023-02-18T09:23:49.507Z,10.70
2023-02-18T09:26:22.254Z,8.70
2023-02-18T09:31:19.842Z,5.70
2023-02-18T09:33:53.546Z,6.30
2023-02-18T09:36:20.514Z,8.40
2023-02-18T09:38:47.753Z,7.50
2023-02-18T09:41:30.662Z,9.50
2023-02-18T09:46:39.400Z,9.20
2023-02-18T09:49:36.782Z,5.60
2023-02-18T09:52:33.983Z,7.40
2023-02-18T09:55:33.442Z,4.10
2023-02-18T09:58:13.399Z,6.50
2023-02-18T10:00:50.243Z,3.90
2023-02-18T10:03:20.438Z,6.10
2023-02-18T10:06:03.924Z,6.70
2023-02-18T10:08:42.969Z,7.60
2023-02-18T10:11:23.030Z,9.50
2023-02-18T10:13:50.315Z,5.80
2023-02-18T10:16:18.782Z,5.90
2023-02-18T10:18:49.249Z,9.00
2023-02-18T10:21:27.015Z,8.00
2023-02-18T10:24:10.043Z,3.10
2023-02-18T10:26:38.163Z,6.80
2023-02-18T10:29:14.457Z,4.70
2023-02-18T10:31:46.211Z,5.70
2023-02-18T10:34:30.002Z,3.90
2023-02-18T10:37:34.742Z,5.90
2023-02-18T10:40:40.410Z,4.40
2023-02-18T10:43:18.276Z,5.20
2023-02-18T10:46:05.117Z,7.40
2023-02-18T10:49:14.770Z,6.60
2023-02-18T10:51:49.852Z,5.00
2023-02-18T10:54:16.393Z,5.10
2023-02-18T10:56:51.667Z,5.10
2023-02-18T10:59:31.418Z,6.20
2023-02-18T11:02:06.206Z,5.80
2023-02-18T11:04:42.125Z,5.10
2023-02-18T11:07:15.861Z,5.10
2023-02-18T11:09:52.216Z,5.50
2023-02-18T11:12:24.734Z,6.50
2023-02-18T11:15:09.546Z,3.10
2023-02-18T11:17:39.264Z,6.80
2023-02-18T11:20:33.929Z,4.90
2023-02-18T11:23:06.673Z,6.60
2023-02-18T11:28:21.493Z,5.00
2023-02-18T11:30:53.858Z,7.70
2023-02-18T11:33:32.714Z,5.30
2023-02-18T11:36:19.578Z,4.90
2023-02-18T11:38:57.862Z,5.10
2023-02-18T11:41:48.312Z,7.10
2023-02-18T11:44:47.897Z,4.00
2023-02-18T11:47:14.501Z,6.80
2023-02-18T11:49:43.808Z,7.40
2023-02-18T11:52:32.862Z,6.70
2023-02-18T11:55:12.015Z,7.50
2023-02-18T11:57:44.177Z,7.00
2023-02-18T12:00:22.190Z,3.90
2023-02-18T12:02:51.891Z,5.60
2023-02-18T12:05:28.136Z,4.90
2023-02-18T12:08:11.202Z,7.10
2023-02-18T12:10:44.188Z,5.50
2023-02-18T12:13:41.060Z,8.30
2023-02-18T12:16:24.320Z,5.10
2023-02-18T12:19:23.608Z,4.80
2023-02-18T12:22:02.695Z,3.30
2023-02-18T12:24:51.343Z,3.80
2023-02-18T12:27:42.632Z,5.30
2023-02-18T12:31:07.142Z,3.90
2023-02-18T12:34:04.604Z,5.40
2023-02-18T12:36:34.126Z,3.70
2023-02-18T12:39:29.484Z,6.10
2023-02-18T12:42:29.643Z,4.60
2023-02-18T12:45:21.188Z,6.30
2023-02-18T12:48:01.036Z,5.70
2023-02-18T12:50:45.717Z,8.40
2023-02-18T12:53:32.377Z,4.40
2023-02-18T12:56:23.666Z,4.80
2023-02-18T12:59:46.820Z,3.70
2023-02-18T13:02:44.137Z,2.90
2023-02-18T13:05:32.802Z,4.50
2023-02-18T13:08:35.476Z,5.40
2023-02-18T13:11:46.231Z,5.90
2023-02-18T13:14:24.146Z,7.50
2023-02-18T13:16:55.549Z,5.50
2023-02-18T13:19:34.378Z,6.80
2023-02-18T13:22:06.707Z,6.80
2023-02-18T13:24:43.394Z,5.90
2023-02-18T13:27:28.005Z,7.90
2023-02-18T13:30:22.458Z,7.20
2023-02-18T13:33:27.477Z,6.70
2023-02-18T13:36:31.828Z,8.70
2023-02-18T13:39:19.240Z,10.30
2023-02-18T13:41:48.591Z,9.50
2023-02-18T13:44:21.605Z,9.20
2023-02-18T13:46:54.735Z,8.90
2023-02-18T13:49:42.833Z,9.50
2023-02-18T13:52:18.859Z,9.50
2023-02-18T13:54:46.155Z,9.10
2023-02-18T13:57:21.985Z,12.30
2023-02-18T14:00:12.434Z,8.90
2023-02-18T14:02:55.768Z,9.60
2023-02-18T14:05:24.309Z,11.40
2023-02-18T14:08:33.945Z,11.10
2023-02-18T14:11:13.166Z,10.20
2023-02-18T14:14:25.484Z,12.70
2023-02-18T14:17:29.372Z,8.60
2023-02-18T14:20:08.393Z,12.10
2023-02-18T14:22:52.092Z,10.40
2023-02-18T14:25:35.839Z,9.40
2023-02-18T14:28:44.456Z,9.00
2023-02-18T14:31:35.565Z,9.70
2023-02-18T14:34:22.376Z,9.20
2023-02-18T14:37:00.566Z,11.80
2023-02-18T14:39:52.291Z,12.80
2023-02-18T14:42:37.920Z,9.90
2023-02-18T14:45:16.921Z,10.60
2023-02-18T14:48:16.517Z,13.20
2023-02-18T14:50:45.999Z,12.50
2023-02-18T14:53:17.953Z,13.40
2023-02-18T14:55:59.571Z,10.70
2023-02-18T14:58:48.542Z,8.20
2023-02-18T15:01:31.375Z,8.40
2023-02-18T15:03:58.537Z,14.70
2023-02-18T15:06:29.752Z,15.10
2023-02-18T15:08:58.274Z,26.50
2023-02-18T15:11:47.586Z,40.50
2023-02-18T15:14:27.275Z,23.50
2023-02-18T15:16:54.376Z,22.20
2023-02-18T15:19:25.832Z,17.90
2023-02-18T15:21:56.031Z,16.00
2023-02-18T15:24:35.351Z,17.90
2023-02-18T15:27:24.952Z,16.90
2023-02-18T15:29:57.032Z,13.60
2023-02-18T15:32:27.219Z,18.50
2023-02-18T15:35:01.040Z,14.90
2023-02-18T15:37:29.012Z,9.80
2023-02-18T15:39:56.576Z,18.70
2023-02-18T15:42:35.830Z,16.40
2023-02-18T15:45:23.844Z,26.40
2023-02-18T15:47:56.653Z,33.70
2023-02-18T15:50:28.443Z,36.00
2023-02-18T15:52:59.277Z,26.30
2023-02-18T15:55:39.065Z,26.50
2023-02-18T15:58:14.514Z,30.10
2023-02-18T16:00:49.077Z,29.30
2023-02-18T16:03:26.587Z,24.70
2023-02-18T16:06:17.008Z,22.50
2023-02-18T16:09:07.381Z,34.90
2023-02-18T16:11:38.545Z,35.70
2023-02-18T16:14:08.105Z,33.80
2023-02-18T16:16:38.833Z,34.60
2023-02-18T16:19:05.596Z,34.50
2023-02-18T16:21:39.341Z,43.30
2023-02-18T16:24:27.745Z,36.90
2023-02-18T16:26:57.152Z,38.80
2023-02-18T16:29:40.234Z,45.50
2023-02-18T16:32:07.221Z,41.50
2023-02-18T16:34:37.810Z,36.90
2023-02-18T16:37:23.411Z,27.40
2023-02-18T16:39:54.196Z,30.90
2023-02-18T16:42:21.345Z,47.60
2023-02-18T16:44:49.398Z,41.60
2023-02-18T16:47:17.508Z,48.30
2023-02-18T16:49:46.040Z,62.60
2023-02-18T16:52:15.568Z,46.00
2023-02-18T16:54:43.105Z,49.10
2023-02-18T16:57:12.821Z,34.60
2023-02-18T16:59:39.429Z,29.20
2023-02-18T17:02:16.787Z,27.80
2023-02-18T17:04:43.350Z,23.10
2023-02-18T17:07:10.810Z,27.50
2023-02-18T17:09:37.839Z,28.10
2023-02-18T17:12:04.591Z,29.20
2023-02-18T17:14:31.505Z,33.50
2023-02-18T17:16:58.485Z,36.30
2023-02-18T17:19:25.060Z,45.20
2023-02-18T17:21:51.760Z,36.00
2023-02-18T17:24:18.824Z,65.60
2023-02-18T17:26:45.544Z,51.30
2023-02-18T17:29:13.190Z,63.80
2023-02-18T17:31:43.853Z,36.60
2023-02-18T17:34:21.197Z,26.00
2023-02-18T17:36:47.767Z,17.30
2023-02-18T17:39:16.980Z,14.60
2023-02-18T17:41:44.003Z,15.60
2023-02-18T17:44:13.685Z,13.60
2023-02-18T17:46:40.334Z,26.40
2023-02-18T17:49:06.933Z,17.80
2023-02-18T17:51:36.156Z,71.40
2023-02-18T17:54:05.771Z,13.00
2023-02-18T17:56:34.765Z,16.60
2023-02-18T17:59:01.305Z,13.00
2023-02-18T18:01:27.951Z,12.60
2023-02-18T18:03:54.705Z,12.30
2023-02-18T18:06:21.457Z,16.20
2023-02-18T18:08:48.241Z,19.10
2023-02-18T18:11:21.709Z,20.30
2023-02-18T18:13:48.668Z,14.50
2023-02-18T18:16:17.032Z,17.60
2023-02-18T18:18:44.150Z,12.00
2023-02-18T18:21:29.318Z,11.50
2023-02-18T18:23:55.956Z,10.20
2023-02-18T18:26:22.833Z,10.00
2023-02-18T18:28:49.446Z,11.20
2023-02-18T18:31:18.594Z,10.50
2023-02-18T18:33:52.294Z,9.90
2023-02-18T18:36:19.735Z,19.20
2023-02-18T18:38:46.520Z,18.10
2023-02-18T18:41:16.146Z,16.70
2023-02-18T18:43:42.762Z,20.20
2023-02-18T18:46:09.556Z,13.70
2023-02-18T18:48:36.240Z,11.00
2023-02-18T18:51:03.090Z,8.50
2023-02-18T18:53:33.400Z,10.10
2023-02-18T18:56:04.221Z,7.30
2023-02-18T18:58:31.180Z,8.60
2023-02-18T19:01:03.793Z,8.50
2023-02-18T19:03:33.187Z,11.90
2023-02-18T19:05:59.803Z,11.40
2023-02-18T19:08:26.468Z,7.30
2023-02-18T19:10:55.997Z,8.20
2023-02-18T19:13:28.759Z,8.60
2023-02-18T19:18:28.402Z,7.90
2023-02-18T19:20:55.702Z,8.60
2023-02-18T19:23:22.299Z,6.10
2023-02-18T19:25:48.883Z,10.40
2023-02-18T19:28:15.694Z,10.30
2023-02-18T19:30:42.593Z,11.60
2023-02-18T19:33:13.025Z,9.20
2023-02-18T19:35:41.212Z,9.60
2023-02-18T19:38:09.782Z,9.00
2023-02-18T19:40:36.790Z,13.40
2023-02-18T19:43:04.448Z,8.40
2023-02-18T19:45:33.207Z,8.10
2023-02-18T19:48:01.220Z,9.40
2023-02-18T19:50:30.786Z,11.70
2023-02-18T19:52:59.314Z,11.70
2023-02-18T19:55:26.123Z,12.10
2023-02-18T19:57:52.946Z,12.40
2023-02-18T20:00:24.363Z,9.70
2023-02-18T20:02:51.106Z,11.80
2023-02-18T20:05:18.745Z,10.50
2023-02-18T20:07:46.190Z,11.30
2023-02-18T20:10:19.471Z,9.70
2023-02-18T20:12:51.607Z,13.20
2023-02-18T20:15:18.617Z,17.70
2023-02-18T20:17:45.265Z,16.70
2023-02-18T20:20:11.897Z,12.90
2023-02-18T20:22:38.525Z,13.50
2023-02-18T20:25:05.605Z,9.60
2023-02-18T20:27:33.424Z,11.40
2023-02-18T20:30:00.092Z,12.30
2023-02-18T20:32:26.779Z,15.10
2023-02-18T20:34:53.290Z,17.30
2023-02-18T20:37:19.946Z,18.30
2023-02-18T20:39:46.627Z,13.90
2023-02-18T20:42:16.619Z,14.80
2023-02-18T20:44:44.881Z,13.60
2023-02-18T20:47:12.877Z,11.50
2023-02-18T20:49:39.991Z,12.30
2023-02-18T20:52:08.065Z,11.40
2023-02-18T20:54:34.860Z,12.80
2023-02-18T20:57:01.882Z,11.90
2023-02-18T20:59:32.722Z,11.20
2023-02-18T21:02:00.354Z,11.30
2023-02-18T21:04:27.339Z,13.40
2023-02-18T21:06:54.697Z,12.70
2023-02-18T21:09:21.425Z,13.20
2023-02-18T21:11:48.415Z,14.80
2023-02-18T21:14:15.116Z,21.60
2023-02-18T21:16:41.946Z,23.50
2023-02-18T21:19:13.464Z,31.80
2023-02-18T21:21:40.811Z,21.40
2023-02-18T21:24:07.596Z,23.80
2023-02-18T21:26:34.603Z,25.30
2023-02-18T21:29:04.988Z,25.60
2023-02-18T21:31:39.196Z,20.50
2023-02-18T21:34:10.794Z,17.90
2023-02-18T21:36:37.934Z,15.80
2023-02-18T21:39:08.300Z,16.90
2023-02-18T21:41:39.911Z,16.20
2023-02-18T21:44:08.303Z,17.20
2023-02-18T21:46:35.945Z,14.40
2023-02-18T21:49:08.709Z,14.40
2023-02-18T21:54:45.862Z,12.60
2023-02-18T21:57:15.657Z,15.10
2023-02-18T21:59:44.553Z,13.00
2023-02-18T22:02:20.900Z,12.30
2023-02-18T22:04:48.588Z,9.30
2023-02-18T22:07:16.506Z,11.70
2023-02-18T22:09:46.656Z,13.00
2023-02-18T22:12:15.442Z,11.90
2023-02-18T22:14:42.933Z,12.40
2023-02-18T22:17:10.049Z,16.30
2023-02-18T22:19:36.772Z,15.20
2023-02-18T22:22:03.432Z,17.30
2023-02-18T22:24:31.359Z,14.50
2023-02-18T22:27:00.771Z,17.90
2023-02-18T22:29:29.327Z,15.30
2023-02-18T22:31:56.100Z,16.20
2023-02-18T22:34:23.504Z,12.10
2023-02-18T22:36:50.030Z,11.20
2023-02-18T22:39:17.226Z,10.10
2023-02-18T22:41:43.914Z,9.80
2023-02-18T22:44:14.166Z,10.70
2023-02-18T22:46:41.128Z,9.40
2023-02-18T22:49:08.426Z,8.70
2023-02-18T22:51:39.192Z,9.20
2023-02-18T22:54:10.782Z,10.30
2023-02-18T22:56:37.445Z,9.30
2023-02-18T22:59:05.212Z,8.50
2023-02-18T23:01:38.056Z,7.00
2023-02-18T23:04:13.508Z,10.20
2023-02-18T23:06:44.067Z,10.90
2023-02-18T23:09:20.529Z,12.10
2023-02-18T23:11:56.825Z,10.20
2023-02-18T23:14:24.930Z,13.20
2023-02-18T23:17:13.684Z,10.00
2023-02-18T23:19:52.101Z,10.80
2023-02-18T23:22:27.616Z,12.80
2023-02-18T23:24:54.150Z,12.40
2023-02-18T23:27:21.703Z,10.90
2023-02-18T23:29:48.920Z,10.70
2023-02-18T23:32:15.806Z,10.90
2023-02-18T23:34:42.472Z,12.30
2023-02-18T23:37:09.551Z,11.00
2023-02-18T23:39:36.344Z,10.60
2023-02-18T23:42:03.067Z,8.90
2023-02-18T23:44:29.710Z,11.00
2023-02-18T23:46:56.295Z,11.80
2023-02-18T23:49:25.096Z,10.10
2023-02-18T23:51:54.671Z,11.70
2023-02-18T23:54:22.371Z,11.10
2023-02-18T23:56:48.980Z,11.10
2023-02-18T23:59:15.644Z,12.50
